sensor_id;sensor_type;location;lat;lon;timestamp;P1;durP1;ratioP1;P2;durP2;ratioP2
72109;SDS011;59983;52.010;5.420;2023-07-31T00:01:12;7.78;;;4.35;;
72109;SDS011;59983;52.010;5.420;2023-07-31T00:03:38;4.37;;;4.07;;
72109;SDS011;59983;52.010;5.420;2023-07-31T00:06:05;4.35;;;3.88;;
72109;SDS011;59983;52.010;5.420;2023-07-31T00:08:32;5.00;;;4.60;;
72109;SDS011;59983;52.010;5.420;2023-07-31T00:10:58;7.80;;;6.32;;
72109;SDS011;59983;52.010;5.420;2023-07-31T00:13:25;7.00;;;6.25;;
72109;SDS011;59983;52.010;5.420;2023-07-31T00:15:51;9.43;;;6.70;;
72109;SDS011;59983;52.010;5.420;2023-07-31T00:18:18;9.82;;;6.63;;
72109;SDS011;59983;52.010;5.420;2023-07-31T00:20:44;9.10;;;6.93;;
72109;SDS011;59983;52.010;5.420;2023-07-31T00:23:11;22.42;;;8.32;;
72109;SDS011;59983;52.010;5.420;2023-07-31T00:25:37;27.17;;;10.10;;
72109;SDS011;59983;52.010;5.420;2023-07-31T00:28:04;16.77;;;8.73;;
72109;SDS011;59983;52.010;5.420;2023-07-31T00:30:30;35.17;;;9.30;;
72109;SDS011;59983;52.010;5.420;2023-07-31T00:32:57;26.73;;;8.85;;
72109;SDS011;59983;52.010;5.420;2023-07-31T00:35:24;28.70;;;8.93;;
72109;SDS011;59983;52.010;5.420;2023-07-31T00:37:50;31.35;;;10.57;;
72109;SDS011;59983;52.010;5.420;2023-07-31T00:40:17;23.67;;;8.87;;
72109;SDS011;59983;52.010;5.420;2023-07-31T00:42:43;19.08;;;8.27;;
72109;SDS011;59983;52.010;5.420;2023-07-31T00:45:10;44.63;;;11.25;;
72109;SDS011;59983;52.010;5.420;2023-07-31T00:47:36;34.08;;;10.00;;
72109;SDS011;59983;52.010;5.420;2023-07-31T00:50:03;25.02;;;8.90;;
72109;SDS011;59983;52.010;5.420;2023-07-31T00:52:30;26.63;;;9.00;;
72109;SDS011;59983;52.010;5.420;2023-07-31T00:54:57;24.15;;;9.80;;
72109;SDS011;59983;52.010;5.420;2023-07-31T00:57:24;38.25;;;10.35;;
72109;SDS011;59983;52.010;5.420;2023-07-31T00:59:51;32.17;;;10.52;;
72109;SDS011;59983;52.010;5.420;2023-07-31T01:02:17;29.85;;;10.32;;
72109;SDS011;59983;52.010;5.420;2023-07-31T01:04:44;27.57;;;9.57;;
72109;SDS011;59983;52.010;5.420;2023-07-31T01:07:14;25.20;;;11.40;;
72109;SDS011;59983;52.010;5.420;2023-07-31T01:12:47;18.90;;;8.30;;
72109;SDS011;59983;52.010;5.420;2023-07-31T01:15:16;28.17;;;9.75;;
72109;SDS011;59983;52.010;5.420;2023-07-31T01:17:43;27.47;;;9.83;;
72109;SDS011;59983;52.010;5.420;2023-07-31T01:20:17;36.13;;;11.52;;
72109;SDS011;59983;52.010;5.420;2023-07-31T01:28:13;31.00;;;9.98;;
72109;SDS011;59983;52.010;5.420;2023-07-31T01:30:47;34.47;;;10.00;;
72109;SDS011;59983;52.010;5.420;2023-07-31T01:33:15;23.20;;;9.27;;
72109;SDS011;59983;52.010;5.420;2023-07-31T01:35:44;37.80;;;8.73;;
72109;SDS011;59983;52.010;5.420;2023-07-31T01:38:11;19.75;;;7.82;;
72109;SDS011;59983;52.010;5.420;2023-07-31T01:40:41;25.60;;;8.88;;
72109;SDS011;59983;52.010;5.420;2023-07-31T01:43:07;13.30;;;6.50;;
72109;SDS011;59983;52.010;5.420;2023-07-31T01:45:34;20.25;;;7.60;;
72109;SDS011;59983;52.010;5.420;2023-07-31T01:48:01;30.10;;;9.98;;
72109;SDS011;59983;52.010;5.420;2023-07-31T01:50:27;23.23;;;8.88;;
72109;SDS011;59983;52.010;5.420;2023-07-31T01:52:54;23.30;;;8.57;;
72109;SDS011;59983;52.010;5.420;2023-07-31T01:55:20;29.83;;;9.63;;
72109;SDS011;59983;52.010;5.420;2023-07-31T01:57:47;25.02;;;8.13;;
72109;SDS011;59983;52.010;5.420;2023-07-31T02:00:14;16.30;;;7.65;;
72109;SDS011;59983;52.010;5.420;2023-07-31T02:02:41;16.33;;;6.82;;
72109;SDS011;59983;52.010;5.420;2023-07-31T02:05:08;13.55;;;5.75;;
72109;SDS011;59983;52.010;5.420;2023-07-31T02:07:34;14.43;;;5.83;;
72109;SDS011;59983;52.010;5.420;2023-07-31T02:10:01;13.57;;;6.57;;
72109;SDS011;59983;52.010;5.420;2023-07-31T02:12:28;11.43;;;6.57;;
72109;SDS011;59983;52.010;5.420;2023-07-31T02:14:57;11.18;;;5.18;;
72109;SDS011;59983;52.010;5.420;2023-07-31T02:17:23;13.63;;;5.90;;
72109;SDS011;59983;52.010;5.420;2023-07-31T02:19:50;13.33;;;6.20;;
72109;SDS011;59983;52.010;5.420;2023-07-31T02:22:16;11.98;;;6.32;;
72109;SDS011;59983;52.010;5.420;2023-07-31T02:24:44;14.23;;;6.10;;
72109;SDS011;59983;52.010;5.420;2023-07-31T02:27:10;21.20;;;7.72;;
72109;SDS011;59983;52.010;5.420;2023-07-31T02:29:37;13.18;;;6.68;;
72109;SDS011;59983;52.010;5.420;2023-07-31T02:32:04;30.37;;;9.10;;
72109;SDS011;59983;52.010;5.420;2023-07-31T02:34:31;13.10;;;7.65;;
72109;SDS011;59983;52.010;5.420;2023-07-31T02:36:57;16.70;;;6.88;;
72109;SDS011;59983;52.010;5.420;2023-07-31T02:39:23;19.48;;;7.95;;
72109;SDS011;59983;52.010;5.420;2023-07-31T02:41:50;29.73;;;8.02;;
72109;SDS011;59983;52.010;5.420;2023-07-31T02:44:16;17.53;;;8.33;;
72109;SDS011;59983;52.010;5.420;2023-07-31T02:46:43;16.73;;;6.95;;
72109;SDS011;59983;52.010;5.420;2023-07-31T02:49:10;29.60;;;9.15;;
72109;SDS011;59983;52.010;5.420;2023-07-31T02:51:36;21.85;;;8.23;;
72109;SDS011;59983;52.010;5.420;2023-07-31T02:54:03;27.85;;;9.10;;
72109;SDS011;59983;52.010;5.420;2023-07-31T02:56:29;24.03;;;8.13;;
72109;SDS011;59983;52.010;5.420;2023-07-31T02:58:56;21.40;;;7.60;;
72109;SDS011;59983;52.010;5.420;2023-07-31T03:01:22;15.40;;;8.18;;
72109;SDS011;59983;52.010;5.420;2023-07-31T03:03:49;21.00;;;8.50;;
72109;SDS011;59983;52.010;5.420;2023-07-31T03:06:15;30.60;;;9.57;;
72109;SDS011;59983;52.010;5.420;2023-07-31T03:08:42;19.67;;;8.37;;
72109;SDS011;59983;52.010;5.420;2023-07-31T03:11:08;27.48;;;10.35;;
72109;SDS011;59983;52.010;5.420;2023-07-31T03:13:35;19.60;;;8.30;;
72109;SDS011;59983;52.010;5.420;2023-07-31T03:16:01;25.30;;;8.10;;
72109;SDS011;59983;52.010;5.420;2023-07-31T03:18:28;21.27;;;9.48;;
72109;SDS011;59983;52.010;5.420;2023-07-31T03:20:54;20.37;;;8.93;;
72109;SDS011;59983;52.010;5.420;2023-07-31T03:23:21;24.95;;;8.13;;
72109;SDS011;59983;52.010;5.420;2023-07-31T03:26:00;18.10;;;8.73;;
72109;SDS011;59983;52.010;5.420;2023-07-31T03:28:33;19.50;;;8.23;;
72109;SDS011;59983;52.010;5.420;2023-07-31T03:30:59;22.15;;;7.97;;
72109;SDS011;59983;52.010;5.420;2023-07-31T03:33:26;22.27;;;8.10;;
72109;SDS011;59983;52.010;5.420;2023-07-31T03:35:53;34.45;;;9.32;;
72109;SDS011;59983;52.010;5.420;2023-07-31T03:38:19;19.90;;;8.27;;
72109;SDS011;59983;52.010;5.420;2023-07-31T03:40:46;22.13;;;8.57;;
72109;SDS011;59983;52.010;5.420;2023-07-31T03:43:13;14.70;;;7.75;;
72109;SDS011;59983;52.010;5.420;2023-07-31T03:45:39;19.33;;;8.00;;
72109;SDS011;59983;52.010;5.420;2023-07-31T03:48:06;17.67;;;8.32;;
72109;SDS011;59983;52.010;5.420;2023-07-31T03:50:34;13.18;;;6.97;;
72109;SDS011;59983;52.010;5.420;2023-07-31T03:53:00;31.58;;;8.38;;
72109;SDS011;59983;52.010;5.420;2023-07-31T03:55:27;25.10;;;8.20;;
72109;SDS011;59983;52.010;5.420;2023-07-31T03:57:53;15.40;;;7.27;;
72109;SDS011;59983;52.010;5.420;2023-07-31T04:00:20;24.52;;;7.63;;
72109;SDS011;59983;52.010;5.420;2023-07-31T04:02:48;27.23;;;8.98;;
72109;SDS011;59983;52.010;5.420;2023-07-31T04:05:15;20.00;;;7.90;;
72109;SDS011;59983;52.010;5.420;2023-07-31T04:07:41;15.68;;;7.18;;
72109;SDS011;59983;52.010;5.420;2023-07-31T04:10:08;16.17;;;6.87;;
72109;SDS011;59983;52.010;5.420;2023-07-31T04:12:38;26.15;;;9.45;;
72109;SDS011;59983;52.010;5.420;2023-07-31T04:15:05;24.65;;;8.68;;
72109;SDS011;59983;52.010;5.420;2023-07-31T04:17:32;17.83;;;7.13;;
72109;SDS011;59983;52.010;5.420;2023-07-31T04:19:58;22.00;;;8.38;;
72109;SDS011;59983;52.010;5.420;2023-07-31T04:22:25;19.47;;;8.43;;
72109;SDS011;59983;52.010;5.420;2023-07-31T04:24:51;23.52;;;7.90;;
72109;SDS011;59983;52.010;5.420;2023-07-31T04:27:18;22.33;;;8.98;;
72109;SDS011;59983;52.010;5.420;2023-07-31T04:29:45;17.23;;;8.68;;
72109;SDS011;59983;52.010;5.420;2023-07-31T04:32:13;18.85;;;7.78;;
72109;SDS011;59983;52.010;5.420;2023-07-31T04:34:42;22.93;;;8.30;;
72109;SDS011;59983;52.010;5.420;2023-07-31T04:37:09;21.65;;;8.02;;
72109;SDS011;59983;52.010;5.420;2023-07-31T04:39:35;20.10;;;8.25;;
72109;SDS011;59983;52.010;5.420;2023-07-31T04:42:02;21.63;;;8.10;;
72109;SDS011;59983;52.010;5.420;2023-07-31T04:44:28;15.10;;;7.88;;
72109;SDS011;59983;52.010;5.420;2023-07-31T04:46:56;13.77;;;7.57;;
72109;SDS011;59983;52.010;5.420;2023-07-31T04:49:22;12.63;;;7.30;;
72109;SDS011;59983;52.010;5.420;2023-07-31T04:51:49;18.63;;;7.13;;
72109;SDS011;59983;52.010;5.420;2023-07-31T04:54:16;26.88;;;7.72;;
72109;SDS011;59983;52.010;5.420;2023-07-31T04:56:43;18.85;;;7.95;;
72109;SDS011;59983;52.010;5.420;2023-07-31T04:59:09;26.93;;;8.20;;
72109;SDS011;59983;52.010;5.420;2023-07-31T05:01:36;12.23;;;6.57;;
72109;SDS011;59983;52.010;5.420;2023-07-31T05:04:02;15.02;;;7.22;;
72109;SDS011;59983;52.010;5.420;2023-07-31T05:06:29;18.08;;;7.55;;
72109;SDS011;59983;52.010;5.420;2023-07-31T05:08:56;20.83;;;6.38;;
72109;SDS011;59983;52.010;5.420;2023-07-31T05:11:22;12.73;;;5.67;;
72109;SDS011;59983;52.010;5.420;2023-07-31T05:13:49;13.35;;;6.50;;
72109;SDS011;59983;52.010;5.420;2023-07-31T05:16:15;20.48;;;8.13;;
72109;SDS011;59983;52.010;5.420;2023-07-31T05:18:42;15.63;;;6.53;;
72109;SDS011;59983;52.010;5.420;2023-07-31T05:21:08;12.80;;;5.88;;
72109;SDS011;59983;52.010;5.420;2023-07-31T05:23:35;18.43;;;6.80;;
72109;SDS011;59983;52.010;5.420;2023-07-31T05:26:04;12.27;;;6.57;;
72109;SDS011;59983;52.010;5.420;2023-07-31T05:28:33;12.20;;;5.85;;
72109;SDS011;59983;52.010;5.420;2023-07-31T05:31:02;12.27;;;5.85;;
72109;SDS011;59983;52.010;5.420;2023-07-31T05:33:29;17.73;;;6.72;;
72109;SDS011;59983;52.010;5.420;2023-07-31T05:35:57;10.60;;;6.10;;
72109;SDS011;59983;52.010;5.420;2023-07-31T05:38:24;16.40;;;7.25;;
72109;SDS011;59983;52.010;5.420;2023-07-31T05:40:50;10.10;;;6.53;;
72109;SDS011;59983;52.010;5.420;2023-07-31T05:43:17;12.23;;;6.70;;
72109;SDS011;59983;52.010;5.420;2023-07-31T05:45:43;13.55;;;8.18;;
72109;SDS011;59983;52.010;5.420;2023-07-31T05:48:10;19.60;;;8.57;;
72109;SDS011;59983;52.010;5.420;2023-07-31T05:50:36;15.45;;;7.90;;
72109;SDS011;59983;52.010;5.420;2023-07-31T05:53:06;18.70;;;7.22;;
72109;SDS011;59983;52.010;5.420;2023-07-31T05:55:34;20.30;;;8.23;;
72109;SDS011;59983;52.010;5.420;2023-07-31T05:58:00;12.85;;;8.00;;
72109;SDS011;59983;52.010;5.420;2023-07-31T06:00:27;12.30;;;6.87;;
72109;SDS011;59983;52.010;5.420;2023-07-31T06:02:54;13.23;;;7.50;;
72109;SDS011;59983;52.010;5.420;2023-07-31T06:05:20;15.32;;;8.43;;
72109;SDS011;59983;52.010;5.420;2023-07-31T06:07:47;16.33;;;7.88;;
72109;SDS011;59983;52.010;5.420;2023-07-31T06:10:13;14.23;;;7.95;;
72109;SDS011;59983;52.010;5.420;2023-07-31T06:12:40;15.07;;;8.60;;
72109;SDS011;59983;52.010;5.420;2023-07-31T06:15:07;21.45;;;7.13;;
72109;SDS011;59983;52.010;5.420;2023-07-31T06:17:33;15.48;;;6.32;;
72109;SDS011;59983;52.010;5.420;2023-07-31T06:20:00;10.40;;;6.53;;
72109;SDS011;59983;52.010;5.420;2023-07-31T06:22:26;13.23;;;7.22;;
72109;SDS011;59983;52.010;5.420;2023-07-31T06:24:53;7.07;;;5.57;;
72109;SDS011;59983;52.010;5.420;2023-07-31T06:27:19;8.70;;;7.00;;
72109;SDS011;59983;52.010;5.420;2023-07-31T06:29:46;8.20;;;6.35;;
72109;SDS011;59983;52.010;5.420;2023-07-31T06:32:14;16.60;;;7.10;;
72109;SDS011;59983;52.010;5.420;2023-07-31T06:34:40;9.38;;;6.20;;
72109;SDS011;59983;52.010;5.420;2023-07-31T06:37:07;13.93;;;6.30;;
72109;SDS011;59983;52.010;5.420;2023-07-31T06:39:33;10.25;;;6.10;;
72109;SDS011;59983;52.010;5.420;2023-07-31T06:42:00;8.07;;;5.75;;
72109;SDS011;59983;52.010;5.420;2023-07-31T06:44:26;9.07;;;5.30;;
72109;SDS011;59983;52.010;5.420;2023-07-31T06:46:53;5.97;;;5.28;;
72109;SDS011;59983;52.010;5.420;2023-07-31T06:49:19;5.07;;;4.67;;
72109;SDS011;59983;52.010;5.420;2023-07-31T06:51:46;7.35;;;6.00;;
72109;SDS011;59983;52.010;5.420;2023-07-31T06:54:12;8.45;;;6.00;;
72109;SDS011;59983;52.010;5.420;2023-07-31T06:56:39;8.57;;;5.38;;
72109;SDS011;59983;52.010;5.420;2023-07-31T06:59:07;7.53;;;5.10;;
72109;SDS011;59983;52.010;5.420;2023-07-31T07:01:34;5.63;;;5.23;;
72109;SDS011;59983;52.010;5.420;2023-07-31T07:04:00;7.68;;;4.82;;
72109;SDS011;59983;52.010;5.420;2023-07-31T07:06:27;6.30;;;5.30;;
72109;SDS011;59983;52.010;5.420;2023-07-31T07:08:54;4.88;;;4.57;;
72109;SDS011;59983;52.010;5.420;2023-07-31T07:11:20;7.20;;;6.10;;
72109;SDS011;59983;52.010;5.420;2023-07-31T07:13:47;7.00;;;6.30;;
72109;SDS011;59983;52.010;5.420;2023-07-31T07:16:13;6.60;;;6.10;;
72109;SDS011;59983;52.010;5.420;2023-07-31T07:18:40;6.38;;;5.88;;
72109;SDS011;59983;52.010;5.420;2023-07-31T07:21:26;8.25;;;5.57;;
72109;SDS011;59983;52.010;5.420;2023-07-31T07:23:53;10.10;;;6.72;;
72109;SDS011;59983;52.010;5.420;2023-07-31T07:26:19;7.90;;;6.23;;
72109;SDS011;59983;52.010;5.420;2023-07-31T07:28:46;6.55;;;5.90;;
72109;SDS011;59983;52.010;5.420;2023-07-31T07:31:13;5.65;;;5.22;;
72109;SDS011;59983;52.010;5.420;2023-07-31T07:33:39;7.95;;;5.95;;
72109;SDS011;59983;52.010;5.420;2023-07-31T07:36:06;9.95;;;6.03;;
72109;SDS011;59983;52.010;5.420;2023-07-31T07:38:35;5.97;;;5.47;;
72109;SDS011;59983;52.010;5.420;2023-07-31T07:41:03;7.85;;;6.97;;
72109;SDS011;59983;52.010;5.420;2023-07-31T07:43:30;7.65;;;6.82;;
72109;SDS011;59983;52.010;5.420;2023-07-31T07:45:56;9.50;;;6.78;;
72109;SDS011;59983;52.010;5.420;2023-07-31T07:48:23;7.88;;;7.25;;
72109;SDS011;59983;52.010;5.420;2023-07-31T07:50:51;7.03;;;6.47;;
72109;SDS011;59983;52.010;5.420;2023-07-31T07:53:18;8.70;;;6.95;;
72109;SDS011;59983;52.010;5.420;2023-07-31T07:55:44;8.15;;;6.20;;
72109;SDS011;59983;52.010;5.420;2023-07-31T07:58:11;7.78;;;6.97;;
72109;SDS011;59983;52.010;5.420;2023-07-31T08:00:38;7.00;;;6.30;;
72109;SDS011;59983;52.010;5.420;2023-07-31T08:03:04;6.50;;;5.93;;
72109;SDS011;59983;52.010;5.420;2023-07-31T08:05:31;6.97;;;5.88;;
72109;SDS011;59983;52.010;5.420;2023-07-31T08:08:00;5.50;;;5.10;;
72109;SDS011;59983;52.010;5.420;2023-07-31T08:10:27;7.85;;;6.68;;
72109;SDS011;59983;52.010;5.420;2023-07-31T08:12:54;6.53;;;5.93;;
72109;SDS011;59983;52.010;5.420;2023-07-31T08:15:20;6.87;;;6.33;;
72109;SDS011;59983;52.010;5.420;2023-07-31T08:17:47;5.25;;;4.85;;
72109;SDS011;59983;52.010;5.420;2023-07-31T08:20:13;5.38;;;4.97;;
72109;SDS011;59983;52.010;5.420;2023-07-31T08:22:40;5.53;;;5.13;;
72109;SDS011;59983;52.010;5.420;2023-07-31T08:25:07;5.47;;;5.10;;
72109;SDS011;59983;52.010;5.420;2023-07-31T08:27:34;4.80;;;4.50;;
72109;SDS011;59983;52.010;5.420;2023-07-31T08:30:00;6.40;;;5.90;;
72109;SDS011;59983;52.010;5.420;2023-07-31T08:32:27;5.15;;;4.82;;
72109;SDS011;59983;52.010;5.420;2023-07-31T08:34:53;5.13;;;4.72;;
72109;SDS011;59983;52.010;5.420;2023-07-31T08:37:20;6.50;;;5.43;;
72109;SDS011;59983;52.010;5.420;2023-07-31T08:39:46;6.40;;;6.00;;
72109;SDS011;59983;52.010;5.420;2023-07-31T08:42:13;5.88;;;5.57;;
72109;SDS011;59983;52.010;5.420;2023-07-31T08:44:40;6.07;;;5.78;;
72109;SDS011;59983;52.010;5.420;2023-07-31T08:47:07;6.28;;;5.68;;
72109;SDS011;59983;52.010;5.420;2023-07-31T08:49:34;5.40;;;5.00;;
72109;SDS011;59983;52.010;5.420;2023-07-31T08:52:02;6.40;;;5.90;;
72109;SDS011;59983;52.010;5.420;2023-07-31T08:54:29;4.63;;;4.32;;
72109;SDS011;59983;52.010;5.420;2023-07-31T08:56:57;5.88;;;5.55;;
72109;SDS011;59983;52.010;5.420;2023-07-31T08:59:29;5.47;;;5.15;;
72109;SDS011;59983;52.010;5.420;2023-07-31T09:01:58;6.03;;;5.10;;
72109;SDS011;59983;52.010;5.420;2023-07-31T09:04:34;5.27;;;4.87;;
72109;SDS011;59983;52.010;5.420;2023-07-31T09:07:02;5.75;;;5.15;;
72109;SDS011;59983;52.010;5.420;2023-07-31T09:09:31;5.65;;;5.15;;
72109;SDS011;59983;52.010;5.420;2023-07-31T09:11:58;5.05;;;4.60;;
72109;SDS011;59983;52.010;5.420;2023-07-31T09:14:25;5.63;;;5.22;;
72109;SDS011;59983;52.010;5.420;2023-07-31T09:16:56;5.47;;;4.50;;
72109;SDS011;59983;52.010;5.420;2023-07-31T09:19:34;5.78;;;5.32;;
72109;SDS011;59983;52.010;5.420;2023-07-31T09:22:05;6.32;;;5.82;;
72109;SDS011;59983;52.010;5.420;2023-07-31T09:24:33;9.70;;;6.25;;
72109;SDS011;59983;52.010;5.420;2023-07-31T09:27:00;6.85;;;5.50;;
72109;SDS011;59983;52.010;5.420;2023-07-31T09:29:28;6.93;;;5.73;;
72109;SDS011;59983;52.010;5.420;2023-07-31T09:31:56;5.72;;;5.32;;
72109;SDS011;59983;52.010;5.420;2023-07-31T09:34:30;7.22;;;6.28;;
72109;SDS011;59983;52.010;5.420;2023-07-31T09:37:05;6.95;;;6.43;;
72109;SDS011;59983;52.010;5.420;2023-07-31T09:39:32;7.60;;;6.88;;
72109;SDS011;59983;52.010;5.420;2023-07-31T09:41:58;6.63;;;5.97;;
72109;SDS011;59983;52.010;5.420;2023-07-31T09:44:38;7.50;;;6.95;;
72109;SDS011;59983;52.010;5.420;2023-07-31T09:47:06;7.60;;;7.00;;
72109;SDS011;59983;52.010;5.420;2023-07-31T09:49:48;8.32;;;7.53;;
72109;SDS011;59983;52.010;5.420;2023-07-31T09:52:15;7.63;;;6.80;;
72109;SDS011;59983;52.010;5.420;2023-07-31T09:54:41;7.73;;;6.97;;
72109;SDS011;59983;52.010;5.420;2023-07-31T09:57:08;8.90;;;7.22;;
72109;SDS011;59983;52.010;5.420;2023-07-31T09:59:35;6.28;;;5.68;;
72109;SDS011;59983;52.010;5.420;2023-07-31T10:02:02;7.63;;;6.85;;
72109;SDS011;59983;52.010;5.420;2023-07-31T10:04:29;8.65;;;7.82;;
72109;SDS011;59983;52.010;5.420;2023-07-31T10:06:56;7.80;;;7.20;;
72109;SDS011;59983;52.010;5.420;2023-07-31T10:09:25;6.50;;;6.00;;
72109;SDS011;59983;52.010;5.420;2023-07-31T10:11:58;7.25;;;6.50;;
72109;SDS011;59983;52.010;5.420;2023-07-31T10:14:26;8.05;;;7.43;;
72109;SDS011;59983;52.010;5.420;2023-07-31T10:16:54;7.28;;;6.57;;
72109;SDS011;59983;52.010;5.420;2023-07-31T10:19:23;7.60;;;7.07;;
72109;SDS011;59983;52.010;5.420;2023-07-31T10:21:50;8.07;;;7.03;;
72109;SDS011;59983;52.010;5.420;2023-07-31T10:24:17;6.10;;;5.70;;
72109;SDS011;59983;52.010;5.420;2023-07-31T10:26:45;7.15;;;6.25;;
72109;SDS011;59983;52.010;5.420;2023-07-31T10:29:13;6.68;;;6.18;;
72109;SDS011;59983;52.010;5.420;2023-07-31T10:31:41;8.00;;;5.20;;
72109;SDS011;59983;52.010;5.420;2023-07-31T10:34:09;5.40;;;5.05;;
72109;SDS011;59983;52.010;5.420;2023-07-31T10:36:36;7.18;;;5.57;;
72109;SDS011;59983;52.010;5.420;2023-07-31T10:39:03;7.72;;;6.10;;
72109;SDS011;59983;52.010;5.420;2023-07-31T10:41:30;5.57;;;5.18;;
72109;SDS011;59983;52.010;5.420;2023-07-31T10:43:59;7.00;;;6.07;;
72109;SDS011;59983;52.010;5.420;2023-07-31T10:46:30;5.72;;;5.22;;
72109;SDS011;59983;52.010;5.420;2023-07-31T10:48:57;5.03;;;4.72;;
72109;SDS011;59983;52.010;5.420;2023-07-31T10:51:35;11.77;;;5.45;;
72109;SDS011;59983;52.010;5.420;2023-07-31T10:54:12;5.40;;;4.95;;
72109;SDS011;59983;52.010;5.420;2023-07-31T10:56:44;12.20;;;4.80;;
72109;SDS011;59983;52.010;5.420;2023-07-31T10:59:13;5.18;;;4.75;;
72109;SDS011;59983;52.010;5.420;2023-07-31T11:01:49;4.78;;;4.45;;
72109;SDS011;59983;52.010;5.420;2023-07-31T11:04:19;7.15;;;4.25;;
72109;SDS011;59983;52.010;5.420;2023-07-31T11:06:56;5.10;;;3.92;;
72109;SDS011;59983;52.010;5.420;2023-07-31T11:09:26;4.90;;;4.50;;
72109;SDS011;59983;52.010;5.420;2023-07-31T11:11:56;5.35;;;5.05;;
72109;SDS011;59983;52.010;5.420;2023-07-31T11:14:23;7.00;;;5.15;;
72109;SDS011;59983;52.010;5.420;2023-07-31T11:16:50;5.43;;;4.93;;
72109;SDS011;59983;52.010;5.420;2023-07-31T11:19:22;6.03;;;5.57;;
72109;SDS011;59983;52.010;5.420;2023-07-31T11:21:50;5.83;;;5.10;;
72109;SDS011;59983;52.010;5.420;2023-07-31T11:24:20;6.53;;;6.03;;
72109;SDS011;59983;52.010;5.420;2023-07-31T11:26:53;8.07;;;5.18;;
72109;SDS011;59983;52.010;5.420;2023-07-31T11:29:20;5.35;;;4.95;;
72109;SDS011;59983;52.010;5.420;2023-07-31T11:31:47;6.72;;;6.20;;
72109;SDS011;59983;52.010;5.420;2023-07-31T11:34:15;6.07;;;5.47;;
72109;SDS011;59983;52.010;5.420;2023-07-31T11:36:52;5.78;;;5.28;;
72109;SDS011;59983;52.010;5.420;2023-07-31T11:39:19;6.25;;;5.55;;
72109;SDS011;59983;52.010;5.420;2023-07-31T11:41:46;5.60;;;5.20;;
72109;SDS011;59983;52.010;5.420;2023-07-31T11:44:12;5.93;;;5.53;;
72109;SDS011;59983;52.010;5.420;2023-07-31T11:46:53;6.07;;;5.60;;
72109;SDS011;59983;52.010;5.420;2023-07-31T11:49:23;5.28;;;4.90;;
72109;SDS011;59983;52.010;5.420;2023-07-31T11:51:49;5.60;;;5.10;;
72109;SDS011;59983;52.010;5.420;2023-07-31T11:54:16;7.53;;;3.65;;
72109;SDS011;59983;52.010;5.420;2023-07-31T11:56:43;5.88;;;4.03;;
72109;SDS011;59983;52.010;5.420;2023-07-31T11:59:11;5.17;;;4.10;;
72109;SDS011;59983;52.010;5.420;2023-07-31T12:01:39;3.88;;;3.67;;
72109;SDS011;59983;52.010;5.420;2023-07-31T12:04:06;5.00;;;4.70;;
72109;SDS011;59983;52.010;5.420;2023-07-31T12:06:36;4.18;;;3.83;;
72109;SDS011;59983;52.010;5.420;2023-07-31T12:09:04;4.00;;;3.80;;
72109;SDS011;59983;52.010;5.420;2023-07-31T12:11:41;4.03;;;3.63;;
72109;SDS011;59983;52.010;5.420;2023-07-31T12:14:19;4.35;;;4.03;;
72109;SDS011;59983;52.010;5.420;2023-07-31T12:16:55;4.60;;;4.40;;
72109;SDS011;59983;52.010;5.420;2023-07-31T12:19:23;4.55;;;4.13;;
72109;SDS011;59983;52.010;5.420;2023-07-31T12:21:54;5.22;;;4.60;;
72109;SDS011;59983;52.010;5.420;2023-07-31T12:24:21;4.57;;;4.27;;
72109;SDS011;59983;52.010;5.420;2023-07-31T12:26:48;4.93;;;4.30;;
72109;SDS011;59983;52.010;5.420;2023-07-31T12:29:15;6.28;;;5.88;;
72109;SDS011;59983;52.010;5.420;2023-07-31T12:31:42;6.25;;;5.80;;
72109;SDS011;59983;52.010;5.420;2023-07-31T12:34:18;5.88;;;5.50;;
72109;SDS011;59983;52.010;5.420;2023-07-31T12:36:47;5.83;;;5.40;;
72109;SDS011;59983;52.010;5.420;2023-07-31T12:39:16;7.15;;;6.65;;
72109;SDS011;59983;52.010;5.420;2023-07-31T12:41:43;6.45;;;5.85;;
72109;SDS011;59983;52.010;5.420;2023-07-31T12:44:10;5.95;;;5.55;;
72109;SDS011;59983;52.010;5.420;2023-07-31T12:46:36;6.20;;;5.78;;
72109;SDS011;59983;52.010;5.420;2023-07-31T12:49:04;6.13;;;5.63;;
72109;SDS011;59983;52.010;5.420;2023-07-31T12:51:30;6.63;;;6.22;;
72109;SDS011;59983;52.010;5.420;2023-07-31T12:53:57;7.57;;;7.07;;
72109;SDS011;59983;52.010;5.420;2023-07-31T12:56:23;7.70;;;7.20;;
72109;SDS011;59983;52.010;5.420;2023-07-31T12:58:50;6.43;;;6.00;;
72109;SDS011;59983;52.010;5.420;2023-07-31T13:01:17;6.80;;;6.40;;
72109;SDS011;59983;52.010;5.420;2023-07-31T13:03:43;7.05;;;6.45;;
72109;SDS011;59983;52.010;5.420;2023-07-31T13:06:10;7.30;;;6.70;;
72109;SDS011;59983;52.010;5.420;2023-07-31T13:08:37;7.00;;;6.40;;
72109;SDS011;59983;52.010;5.420;2023-07-31T13:11:03;5.85;;;5.45;;
72109;SDS011;59983;52.010;5.420;2023-07-31T13:13:30;7.53;;;7.03;;
72109;SDS011;59983;52.010;5.420;2023-07-31T13:15:58;7.43;;;6.82;;
72109;SDS011;59983;52.010;5.420;2023-07-31T13:18:25;7.30;;;6.60;;
72109;SDS011;59983;52.010;5.420;2023-07-31T13:20:52;7.70;;;7.15;;
72109;SDS011;59983;52.010;5.420;2023-07-31T13:23:18;10.63;;;8.38;;
72109;SDS011;59983;52.010;5.420;2023-07-31T13:25:45;8.53;;;7.83;;
72109;SDS011;59983;52.010;5.420;2023-07-31T13:28:11;8.50;;;7.72;;
72109;SDS011;59983;52.010;5.420;2023-07-31T13:30:38;9.95;;;9.07;;
72109;SDS011;59983;52.010;5.420;2023-07-31T13:33:05;8.18;;;7.38;;
72109;SDS011;59983;52.010;5.420;2023-07-31T13:35:40;7.63;;;6.93;;
72109;SDS011;59983;52.010;5.420;2023-07-31T13:38:06;11.03;;;10.10;;
72109;SDS011;59983;52.010;5.420;2023-07-31T13:40:33;11.13;;;9.25;;
72109;SDS011;59983;52.010;5.420;2023-07-31T13:43:00;9.55;;;8.85;;
72109;SDS011;59983;52.010;5.420;2023-07-31T13:45:26;11.23;;;10.13;;
72109;SDS011;59983;52.010;5.420;2023-07-31T13:47:53;13.30;;;12.20;;
72109;SDS011;59983;52.010;5.420;2023-07-31T13:50:19;11.77;;;10.57;;
72109;SDS011;59983;52.010;5.420;2023-07-31T13:52:47;11.93;;;10.88;;
72109;SDS011;59983;52.010;5.420;2023-07-31T13:55:14;14.10;;;12.68;;
72109;SDS011;59983;52.010;5.420;2023-07-31T13:57:41;13.38;;;12.15;;
72109;SDS011;59983;52.010;5.420;2023-07-31T14:00:07;19.05;;;14.00;;
72109;SDS011;59983;52.010;5.420;2023-07-31T14:02:35;14.03;;;12.63;;
72109;SDS011;59983;52.010;5.420;2023-07-31T14:05:01;14.82;;;13.35;;
72109;SDS011;59983;52.010;5.420;2023-07-31T14:07:29;14.38;;;10.38;;
72109;SDS011;59983;52.010;5.420;2023-07-31T14:09:55;12.38;;;11.18;;
72109;SDS011;59983;52.010;5.420;2023-07-31T14:12:22;12.85;;;11.55;;
72109;SDS011;59983;52.010;5.420;2023-07-31T14:15:08;15.77;;;13.13;;
72109;SDS011;59983;52.010;5.420;2023-07-31T14:17:35;12.65;;;11.07;;
72109;SDS011;59983;52.010;5.420;2023-07-31T14:20:02;15.85;;;12.50;;
72109;SDS011;59983;52.010;5.420;2023-07-31T14:22:30;10.80;;;9.55;;
72109;SDS011;59983;52.010;5.420;2023-07-31T14:24:57;10.82;;;9.82;;
72109;SDS011;59983;52.010;5.420;2023-07-31T14:27:23;15.30;;;11.17;;
72109;SDS011;59983;52.010;5.420;2023-07-31T14:29:50;11.63;;;10.23;;
72109;SDS011;59983;52.010;5.420;2023-07-31T14:32:17;8.63;;;7.93;;
72109;SDS011;59983;52.010;5.420;2023-07-31T14:34:43;11.05;;;9.95;;
72109;SDS011;59983;52.010;5.420;2023-07-31T14:37:10;9.75;;;8.30;;
72109;SDS011;59983;52.010;5.420;2023-07-31T14:39:36;8.73;;;7.57;;
72109;SDS011;59983;52.010;5.420;2023-07-31T14:42:06;9.50;;;7.30;;
72109;SDS011;59983;52.010;5.420;2023-07-31T14:44:33;8.90;;;6.50;;
72109;SDS011;59983;52.010;5.420;2023-07-31T14:46:59;7.95;;;7.30;;
72109;SDS011;59983;52.010;5.420;2023-07-31T14:49:26;10.88;;;9.00;;
72109;SDS011;59983;52.010;5.420;2023-07-31T14:51:56;6.67;;;6.07;;